createdAt,value
2017-07-29T00:01:01.425Z,99.99
2017-07-29T00:02:22.926Z,99.99
2017-07-29T00:03:45.070Z,99.99
2017-07-29T00:05:07.495Z,99.99
2017-07-29T00:06:30.082Z,99.99
2017-07-29T00:07:51.922Z,99.99
2017-07-29T00:09:13.878Z,99.99
2017-07-29T00:10:36.346Z,99.99
2017-07-29T00:11:58.816Z,99.99
2017-07-29T00:13:20.007Z,99.99
2017-07-29T00:14:42.275Z,99.99
2017-07-29T00:16:05.020Z,99.99
2017-07-29T00:17:26.853Z,99.99
2017-07-29T00:18:49.021Z,99.99
2017-07-29T00:20:11.156Z,99.99
2017-07-29T00:21:33.948Z,99.99
2017-07-29T00:22:56.085Z,99.99
2017-07-29T00:24:17.953Z,99.99
2017-07-29T00:25:40.138Z,99.99
2017-07-29T00:27:03.005Z,99.99
2017-07-29T00:28:24.544Z,99.99
2017-07-29T00:29:47.025Z,99.99
2017-07-29T00:31:09.505Z,99.99
2017-07-29T00:32:31.265Z,99.99
2017-07-29T00:33:53.482Z,99.99
2017-07-29T00:35:15.337Z,99.99
2017-07-29T00:36:37.504Z,99.99
2017-07-29T00:37:59.657Z,99.99
2017-07-29T00:39:22.136Z,99.99
2017-07-29T00:40:44.026Z,99.99
2017-07-29T00:42:06.325Z,99.99
2017-07-29T00:43:28.735Z,99.99
2017-07-29T00:44:50.582Z,99.99
2017-07-29T00:46:13.072Z,99.99
2017-07-29T00:47:35.546Z,99.99
2017-07-29T00:48:57.685Z,99.99
2017-07-29T00:50:19.516Z,99.99
2017-07-29T00:51:41.977Z,99.99
2017-07-29T00:53:04.126Z,99.99
2017-07-29T00:54:26.865Z,99.99
2017-07-29T00:55:48.466Z,99.99
2017-07-29T00:57:10.675Z,99.99
2017-07-29T00:58:32.963Z,99.99
2017-07-29T00:59:55.073Z,99.99
2017-07-29T01:01:16.916Z,99.99
2017-07-29T01:02:38.218Z,99.99
2017-07-29T01:04:00.121Z,99.99
2017-07-29T01:05:22.276Z,99.99
2017-07-29T01:06:43.810Z,99.99
2017-07-29T01:08:05.335Z,99.99
2017-07-29T01:09:27.163Z,99.99
2017-07-29T01:10:49.106Z,99.99
2017-07-29T01:12:11.578Z,99.99
2017-07-29T01:13:33.415Z,99.99
2017-07-29T01:14:55.366Z,99.99
2017-07-29T01:16:18.085Z,99.99
2017-07-29T01:17:39.906Z,99.99
2017-07-29T01:19:02.482Z,99.99
2017-07-29T01:20:24.433Z,99.99
2017-07-29T01:21:46.838Z,99.99
2017-07-29T01:23:09.286Z,99.99
2017-07-29T01:24:30.810Z,99.99
2017-07-29T01:25:52.634Z,99.99
2017-07-29T01:27:14.355Z,99.99
2017-07-29T01:28:36.196Z,99.99
2017-07-29T01:29:58.046Z,99.99
2017-07-29T01:31:19.557Z,99.99
2017-07-29T01:32:41.655Z,99.99
2017-07-29T01:34:03.785Z,99.99
2017-07-29T01:35:24.997Z,99.99
2017-07-29T01:36:47.166Z,99.99
2017-07-29T01:38:08.956Z,99.99
2017-07-29T01:39:30.499Z,99.99
2017-07-29T01:40:52.975Z,99.99
2017-07-29T01:42:14.496Z,99.99
2017-07-29T01:43:36.806Z,99.99
2017-07-29T01:44:58.326Z,99.99
2017-07-29T01:46:19.867Z,99.99
2017-07-29T01:47:42.321Z,99.99
2017-07-29T01:49:04.167Z,99.99
2017-07-29T01:50:26.452Z,99.99
2017-07-29T01:51:49.006Z,99.99
2017-07-29T01:53:11.145Z,99.99
2017-07-29T01:54:33.002Z,99.99
2017-07-29T01:55:55.466Z,99.99
2017-07-29T01:57:17.406Z,99.99
2017-07-29T01:58:39.633Z,99.99
2017-07-29T02:00:02.436Z,99.99
2017-07-29T02:01:24.905Z,99.99
2017-07-29T02:02:46.425Z,99.99
2017-07-29T02:04:08.262Z,99.99
2017-07-29T02:05:30.386Z,99.99
2017-07-29T02:06:52.864Z,99.99
2017-07-29T02:08:15.103Z,99.99
2017-07-29T02:09:36.942Z,99.99
2017-07-29T02:10:58.710Z,99.99
2017-07-29T02:12:20.855Z,99.99
2017-07-29T02:13:42.700Z,99.99
2017-07-29T02:15:04.876Z,99.99
2017-07-29T02:16:27.664Z,99.99
2017-07-29T02:17:49.502Z,99.99
2017-07-29T02:19:11.516Z,99.99
2017-07-29T02:20:33.790Z,99.99
2017-07-29T02:21:56.387Z,99.99
2017-07-29T02:23:18.539Z,99.99
2017-07-29T02:24:40.993Z,99.99
2017-07-29T02:26:02.837Z,99.99
2017-07-29T02:27:24.926Z,99.99
2017-07-29T02:28:46.854Z,99.99
2017-07-29T02:30:09.454Z,99.99
2017-07-29T02:31:31.925Z,99.99
2017-07-29T02:32:54.045Z,99.99
2017-07-29T02:34:15.906Z,99.99
2017-07-29T02:35:37.753Z,99.99
2017-07-29T02:36:59.905Z,99.99
2017-07-29T02:38:22.497Z,99.99
2017-07-29T02:39:44.039Z,99.99
2017-07-29T02:41:06.521Z,99.99
2017-07-29T02:42:28.162Z,99.99
2017-07-29T02:43:50.366Z,99.99
2017-07-29T02:45:12.198Z,99.99
2017-07-29T02:46:34.538Z,99.99
2017-07-29T02:47:56.046Z,99.99
2017-07-29T02:49:18.459Z,99.99
2017-07-29T02:50:40.651Z,99.99
2017-07-29T02:52:02.813Z,99.99
2017-07-29T02:53:24.636Z,99.99
2017-07-29T02:54:46.882Z,99.99
2017-07-29T02:56:08.480Z,99.99
2017-07-29T02:57:30.371Z,99.99
2017-07-29T02:58:52.867Z,99.99
2017-07-29T03:00:14.965Z,99.99
2017-07-29T03:01:36.491Z,99.99
2017-07-29T03:02:58.079Z,99.99
2017-07-29T03:04:20.306Z,99.99
2017-07-29T03:05:42.717Z,99.99
2017-07-29T03:07:05.187Z,99.99
2017-07-29T03:08:27.323Z,99.99
2017-07-29T03:09:49.917Z,99.99
2017-07-29T03:11:12.405Z,99.99
2017-07-29T03:12:34.661Z,99.99
2017-07-29T03:13:56.188Z,99.99
2017-07-29T03:15:18.649Z,99.99
2017-07-29T03:16:40.431Z,99.99
2017-07-29T03:18:02.919Z,99.99
2017-07-29T03:19:25.076Z,99.99
2017-07-29T03:20:46.945Z,99.99
2017-07-29T03:22:08.724Z,99.99
2017-07-29T03:23:30.544Z,99.99
2017-07-29T03:24:52.677Z,99.99
2017-07-29T03:26:14.503Z,99.99
2017-07-29T03:27:36.955Z,99.99
2017-07-29T03:28:58.476Z,99.99
2017-07-29T03:30:20.637Z,99.99
2017-07-29T03:31:42.583Z,99.99
2017-07-29T03:33:05.013Z,99.99
2017-07-29T03:34:26.228Z,99.99
2017-07-29T03:35:48.069Z,99.99
2017-07-29T03:37:10.098Z,99.99
2017-07-29T03:38:32.501Z,99.99
2017-07-29T03:39:54.690Z,99.99
2017-07-29T03:41:17.163Z,99.99
2017-07-29T03:42:39.409Z,99.99
2017-07-29T03:44:02.238Z,99.99
2017-07-29T03:45:24.385Z,99.99
2017-07-29T03:46:46.222Z,99.99
2017-07-29T03:48:08.064Z,99.99
2017-07-29T03:49:29.827Z,99.99
2017-07-29T03:50:52.308Z,99.99
2017-07-29T03:52:14.764Z,99.99
2017-07-29T03:53:36.584Z,99.99
2017-07-29T03:54:58.756Z,99.99
2017-07-29T03:56:21.065Z,99.99
2017-07-29T03:57:43.539Z,99.99
2017-07-29T03:59:05.416Z,99.99
2017-07-29T04:00:27.677Z,99.99
2017-07-29T04:01:49.839Z,99.99
2017-07-29T04:03:12.008Z,99.99
2017-07-29T04:04:33.843Z,99.99
2017-07-29T04:05:56.307Z,99.99
2017-07-29T04:07:18.141Z,99.99
2017-07-29T04:08:39.969Z,99.99
2017-07-29T04:10:02.450Z,99.99
2017-07-29T04:11:24.658Z,99.99
2017-07-29T04:12:47.010Z,99.99
2017-07-29T04:14:09.207Z,99.99
2017-07-29T04:15:31.352Z,99.99
2017-07-29T04:16:53.804Z,99.99
2017-07-29T04:18:16.359Z,99.99
2017-07-29T04:19:38.826Z,99.99
2017-07-29T04:21:00.667Z,99.99
2017-07-29T04:22:22.776Z,99.99
2017-07-29T04:23:44.380Z,99.99
2017-07-29T04:25:06.636Z,99.99
2017-07-29T04:26:28.225Z,99.99
2017-07-29T04:27:50.465Z,99.99
2017-07-29T04:29:12.146Z,99.99
2017-07-29T04:30:34.012Z,99.99
2017-07-29T04:31:56.157Z,99.99
2017-07-29T04:33:18.669Z,99.99
2017-07-29T04:34:40.802Z,99.99
2017-07-29T04:36:03.263Z,99.99
2017-07-29T04:37:25.446Z,99.99
2017-07-29T04:38:47.857Z,99.99
2017-07-29T04:40:09.696Z,99.99
2017-07-29T04:41:31.557Z,99.99
2017-07-29T04:42:53.376Z,99.99
2017-07-29T04:44:15.844Z,99.99
2017-07-29T04:45:38.050Z,99.99
2017-07-29T04:46:59.588Z,99.99
2017-07-29T04:48:21.733Z,99.99
2017-07-29T04:49:43.475Z,99.99
2017-07-29T04:51:05.756Z,99.99
2017-07-29T04:52:27.599Z,99.99
2017-07-29T04:53:49.634Z,99.99
2017-07-29T04:55:11.785Z,99.99
2017-07-29T04:56:33.711Z,99.99
2017-07-29T04:57:56.197Z,99.99
2017-07-29T04:59:18.156Z,99.99
2017-07-29T05:00:40.227Z,99.99
2017-07-29T05:02:02.375Z,99.99
2017-07-29T05:03:24.276Z,99.99
2017-07-29T05:04:45.507Z,99.99
2017-07-29T05:06:07.897Z,99.99
2017-07-29T05:07:30.144Z,99.99
2017-07-29T05:08:51.976Z,99.99
2017-07-29T05:10:14.132Z,99.99
2017-07-29T05:11:35.629Z,99.99
2017-07-29T05:12:57.189Z,99.99
2017-07-29T05:14:19.013Z,99.99
2017-07-29T05:15:40.846Z,99.99
2017-07-29T05:17:03.577Z,99.99
2017-07-29T05:18:25.105Z,99.99
2017-07-29T05:19:47.057Z,99.99
2017-07-29T05:21:08.874Z,99.99
2017-07-29T05:22:31.014Z,99.99
2017-07-29T05:23:53.520Z,99.99
2017-07-29T05:25:15.412Z,99.99
2017-07-29T05:26:37.390Z,99.99
2017-07-29T05:27:59.500Z,99.99
2017-07-29T05:29:21.756Z,99.99
2017-07-29T05:30:44.290Z,99.99
2017-07-29T05:32:06.465Z,99.99
2017-07-29T05:33:28.977Z,99.99
2017-07-29T05:34:51.137Z,99.99
2017-07-29T05:36:13.280Z,99.99
2017-07-29T05:37:35.476Z,99.99
2017-07-29T05:38:58.465Z,99.99
2017-07-29T05:40:20.632Z,99.99
2017-07-29T05:41:41.947Z,99.99
2017-07-29T05:43:04.096Z,99.99
2017-07-29T05:44:25.654Z,99.99
2017-07-29T05:45:47.844Z,99.99
2017-07-29T05:47:09.685Z,99.99
2017-07-29T05:48:31.517Z,99.99
2017-07-29T05:49:53.443Z,99.99
2017-07-29T05:51:15.633Z,99.99
2017-07-29T05:52:37.495Z,99.99
2017-07-29T05:53:59.385Z,99.99
2017-07-29T05:55:21.846Z,99.99
2017-07-29T05:56:43.718Z,99.99
2017-07-29T05:58:05.622Z,99.99
2017-07-29T05:59:27.766Z,99.99
2017-07-29T06:00:50.496Z,99.99
2017-07-29T06:02:12.667Z,99.99
2017-07-29T06:03:34.947Z,99.99
2017-07-29T06:04:56.806Z,99.99
2017-07-29T06:06:19.276Z,99.99
2017-07-29T06:07:41.443Z,99.99
2017-07-29T06:09:03.904Z,99.99
2017-07-29T06:10:25.749Z,99.99
2017-07-29T06:11:47.958Z,99.99
2017-07-29T06:13:09.810Z,99.99
2017-07-29T06:14:32.027Z,99.99
2017-07-29T06:15:54.188Z,99.99
2017-07-29T06:17:16.340Z,99.99
2017-07-29T06:18:38.212Z,99.99
2017-07-29T06:19:59.741Z,99.99
2017-07-29T06:21:21.575Z,99.99
2017-07-29T06:22:43.087Z,99.99
2017-07-29T06:24:05.397Z,99.99
2017-07-29T06:25:26.924Z,99.99
2017-07-29T06:26:48.456Z,99.99
2017-07-29T06:28:10.607Z,99.99
2017-07-29T06:29:32.441Z,99.99
2017-07-29T06:30:54.079Z,99.99
2017-07-29T06:32:16.270Z,99.99
2017-07-29T06:33:38.187Z,99.99
2017-07-29T06:35:00.332Z,99.99
2017-07-29T06:36:22.187Z,99.99
2017-07-29T06:37:44.337Z,99.99
2017-07-29T06:39:06.738Z,99.99
2017-07-29T06:40:28.575Z,99.99
2017-07-29T06:41:50.746Z,99.99
2017-07-29T06:43:12.586Z,99.99
2017-07-29T06:44:34.735Z,99.99
2017-07-29T06:45:56.307Z,99.99
2017-07-29T06:47:18.131Z,99.99
2017-07-29T06:48:39.656Z,99.99
2017-07-29T06:50:01.483Z,99.99
2017-07-29T06:51:23.326Z,99.99
2017-07-29T06:52:45.492Z,99.99
2017-07-29T06:54:07.634Z,99.99
2017-07-29T06:55:30.156Z,99.99
2017-07-29T06:56:52.138Z,99.99
2017-07-29T06:58:14.408Z,99.99
2017-07-29T06:59:36.322Z,99.99
2017-07-29T07:00:58.771Z,99.99
2017-07-29T07:02:20.436Z,99.99
2017-07-29T07:03:42.657Z,99.99
2017-07-29T07:05:05.146Z,99.99
2017-07-29T07:06:27.613Z,99.99
2017-07-29T07:07:49.145Z,99.99
2017-07-29T07:09:11.009Z,99.99
2017-07-29T07:10:32.626Z,99.99
2017-07-29T07:11:54.798Z,99.99
2017-07-29T07:13:16.982Z,99.99
2017-07-29T07:14:39.136Z,99.99
2017-07-29T07:16:01.298Z,99.99
2017-07-29T07:17:24.088Z,99.99
2017-07-29T07:18:45.747Z,99.99
2017-07-29T07:20:07.653Z,99.99
2017-07-29T07:21:29.964Z,99.99
2017-07-29T07:22:52.896Z,99.99
2017-07-29T07:24:15.474Z,99.99
2017-07-29T07:25:37.998Z,99.99
2017-07-29T07:27:00.156Z,99.99
2017-07-29T07:28:21.983Z,99.99
2017-07-29T07:29:43.926Z,99.99
2017-07-29T07:31:05.139Z,99.99
2017-07-29T07:32:27.639Z,99.99
2017-07-29T07:33:50.114Z,99.99
2017-07-29T07:35:12.355Z,99.99
2017-07-29T07:36:33.581Z,99.99
2017-07-29T07:37:54.799Z,99.99
2017-07-29T07:39:16.887Z,99.99
2017-07-29T07:40:38.715Z,99.99
2017-07-29T07:42:00.266Z,99.99
2017-07-29T07:43:22.120Z,99.99
2017-07-29T07:44:44.955Z,99.99
2017-07-29T07:46:07.114Z,99.99
2017-07-29T07:47:28.964Z,99.99
2017-07-29T07:48:50.575Z,99.99
2017-07-29T07:50:12.985Z,99.99
2017-07-29T07:51:34.825Z,99.99
2017-07-29T07:52:56.997Z,99.99
2017-07-29T07:54:19.213Z,99.99
2017-07-29T07:55:41.676Z,99.99
2017-07-29T07:57:03.518Z,99.99
2017-07-29T07:58:25.052Z,99.99
2017-07-29T07:59:47.774Z,99.99
2017-07-29T08:01:09.661Z,99.99
2017-07-29T08:02:32.184Z,99.99
2017-07-29T08:03:54.056Z,99.99
2017-07-29T08:05:16.229Z,99.99
2017-07-29T08:06:38.776Z,99.99
2017-07-29T08:08:00.947Z,99.99
2017-07-29T08:09:22.564Z,99.99
2017-07-29T08:10:44.399Z,99.99
2017-07-29T08:12:06.650Z,99.99
2017-07-29T08:13:28.174Z,99.99
2017-07-29T08:14:50.714Z,99.99
2017-07-29T08:16:12.545Z,99.99
2017-07-29T08:17:35.010Z,99.99
2017-07-29T08:18:57.177Z,99.99
2017-07-29T08:20:18.690Z,99.99
2017-07-29T08:21:40.916Z,99.99
2017-07-29T08:23:03.390Z,99.99
2017-07-29T08:24:25.871Z,99.99
2017-07-29T08:25:48.344Z,99.99
2017-07-29T08:27:10.860Z,99.99
2017-07-29T08:28:33.017Z,99.99
2017-07-29T08:29:55.487Z,99.99
2017-07-29T08:31:17.658Z,99.99
2017-07-29T08:32:39.957Z,99.99
2017-07-29T08:34:02.457Z,99.99
2017-07-29T08:35:24.313Z,99.99
2017-07-29T08:36:47.157Z,99.99
2017-07-29T08:38:09.874Z,99.99
2017-07-29T08:39:32.006Z,99.99
2017-07-29T08:40:54.197Z,99.99
2017-07-29T08:42:16.429Z,99.99
2017-07-29T08:43:38.909Z,99.99
2017-07-29T08:45:02.236Z,99.99
2017-07-29T08:46:24.399Z,99.99
2017-07-29T08:47:46.266Z,99.99
2017-07-29T08:49:08.189Z,99.99
2017-07-29T08:50:30.342Z,99.99
2017-07-29T08:51:52.506Z,99.99
2017-07-29T08:53:14.388Z,99.99
2017-07-29T08:54:36.877Z,99.99
2017-07-29T08:55:59.481Z,99.99
2017-07-29T08:57:21.379Z,99.99
2017-07-29T08:58:43.558Z,99.99
2017-07-29T09:00:06.037Z,99.99
2017-07-29T09:01:28.179Z,99.99
2017-07-29T09:02:50.342Z,99.99
2017-07-29T09:04:12.203Z,99.99
2017-07-29T09:05:34.058Z,99.99
2017-07-29T09:06:56.799Z,99.99
2017-07-29T09:08:19.314Z,99.99
2017-07-29T09:09:41.348Z,99.99
2017-07-29T09:11:03.296Z,99.99
2017-07-29T09:12:25.839Z,99.99
2017-07-29T09:13:48.201Z,99.99
2017-07-29T09:15:10.698Z,99.99
2017-07-29T09:16:32.966Z,99.99
2017-07-29T09:17:55.437Z,99.99
2017-07-29T09:19:17.349Z,99.99
2017-07-29T09:20:39.549Z,99.99
2017-07-29T09:22:02.058Z,99.99
2017-07-29T09:23:24.628Z,99.99
2017-07-29T09:24:46.471Z,99.99
2017-07-29T09:26:08.736Z,99.99
2017-07-29T09:27:30.618Z,99.99
2017-07-29T09:28:53.066Z,99.99
2017-07-29T09:30:15.588Z,99.99
2017-07-29T09:31:37.757Z,99.99
2017-07-29T09:32:58.995Z,99.99
2017-07-29T09:34:21.436Z,99.99
2017-07-29T09:35:43.606Z,99.99
2017-07-29T09:37:05.455Z,99.99
2017-07-29T09:38:27.947Z,99.99
2017-07-29T09:39:50.436Z,99.99
2017-07-29T09:41:13.027Z,99.99
2017-07-29T09:42:34.893Z,99.99
2017-07-29T09:43:57.406Z,99.99
2017-07-29T09:45:19.562Z,99.99
2017-07-29T09:46:41.846Z,99.99
2017-07-29T09:48:03.739Z,99.99
2017-07-29T09:49:25.591Z,99.99
2017-07-29T09:50:48.600Z,99.99
2017-07-29T09:52:10.783Z,99.99
2017-07-29T09:53:33.349Z,99.99
2017-07-29T09:54:55.217Z,99.99
2017-07-29T09:56:17.512Z,99.99
2017-07-29T09:57:39.994Z,99.99
2017-07-29T09:59:02.475Z,99.99
2017-07-29T10:00:24.658Z,99.99
2017-07-29T10:01:47.107Z,99.99
2017-07-29T10:03:09.056Z,99.99
2017-07-29T10:04:30.916Z,99.99
2017-07-29T10:05:53.457Z,99.99
2017-07-29T10:07:16.224Z,99.99
2017-07-29T10:08:38.546Z,99.99
2017-07-29T10:10:00.712Z,99.99
2017-07-29T10:11:22.587Z,99.99
2017-07-29T10:12:45.120Z,99.99
2017-07-29T10:14:07.295Z,99.99
2017-07-29T10:15:29.770Z,99.99
2017-07-29T10:16:51.708Z,99.99
2017-07-29T10:18:13.937Z,99.99
2017-07-29T10:19:35.497Z,99.36
2017-07-29T10:20:57.663Z,99.21
2017-07-29T10:22:19.809Z,98.35
2017-07-29T10:23:42.287Z,98.05
2017-07-29T10:25:04.389Z,97.28
2017-07-29T10:26:26.547Z,99.51
2017-07-29T10:27:48.125Z,99.51
2017-07-29T10:29:10.407Z,99.94
2017-07-29T10:30:32.593Z,98.97
2017-07-29T10:31:54.779Z,99.36
2017-07-29T10:33:17.377Z,99.79
2017-07-29T10:34:39.864Z,99.21
2017-07-29T10:36:02.125Z,99.16
2017-07-29T10:37:24.266Z,98.97
2017-07-29T10:38:46.430Z,99.99
2017-07-29T10:40:08.264Z,99.99
2017-07-29T10:41:30.428Z,99.99
2017-07-29T10:42:52.696Z,99.69
2017-07-29T10:44:14.539Z,99.79
2017-07-29T10:45:37.026Z,99.99
2017-07-29T10:46:59.307Z,99.99
2017-07-29T10:48:21.194Z,99.99
2017-07-29T10:49:43.727Z,99.99
2017-07-29T10:51:06.209Z,99.99
2017-07-29T10:52:28.383Z,99.99
2017-07-29T10:53:50.876Z,99.99
2017-07-29T10:55:13.524Z,99.99
2017-07-29T10:56:36.288Z,99.99
2017-07-29T10:57:58.447Z,99.99
2017-07-29T10:59:20.929Z,99.99
2017-07-29T11:00:43.401Z,99.99
2017-07-29T11:02:05.286Z,99.99
2017-07-29T11:03:27.798Z,99.99
2017-07-29T11:04:49.712Z,99.99
2017-07-29T11:06:11.328Z,99.99
2017-07-29T11:07:33.906Z,99.99
2017-07-29T11:08:55.737Z,99.99
2017-07-29T11:10:18.276Z,99.99
2017-07-29T11:11:40.755Z,99.89
2017-07-29T11:13:03.218Z,98
2017-07-29T11:14:25.096Z,97.47
2017-07-29T11:15:47.694Z,96.94
2017-07-29T11:17:09.875Z,94.76
2017-07-29T11:18:32.356Z,95.64
2017-07-29T11:19:54.587Z,95.64
2017-07-29T11:21:17.228Z,95.34
2017-07-29T11:22:39.399Z,95.92
2017-07-29T11:24:02.183Z,96.46
2017-07-29T11:25:23.788Z,96.46
2017-07-29T11:26:45.956Z,97.86
2017-07-29T11:28:07.943Z,98.44
2017-07-29T11:29:30.091Z,99.46
2017-07-29T11:30:52.264Z,99.99
2017-07-29T11:32:14.648Z,99.99
2017-07-29T11:33:36.832Z,99.84
2017-07-29T11:34:58.674Z,99.07
2017-07-29T11:36:20.836Z,99.99
2017-07-29T11:37:42.712Z,99.99
2017-07-29T11:39:05.266Z,99.41
2017-07-29T11:40:27.748Z,99.99
2017-07-29T11:41:49.953Z,99.99
2017-07-29T11:43:12.444Z,99.99
2017-07-29T11:44:35.070Z,99.99
2017-07-29T11:45:57.873Z,99.99
2017-07-29T11:47:19.904Z,99.99
2017-07-29T11:48:42.540Z,99.99
2017-07-29T11:50:04.703Z,99.99
2017-07-29T11:51:26.525Z,99.99
2017-07-29T11:52:48.706Z,99.99
2017-07-29T11:54:11.242Z,99.99
2017-07-29T11:55:33.767Z,99.99
2017-07-29T11:56:56.573Z,99.99
2017-07-29T11:58:18.764Z,99.99
2017-07-29T11:59:41.073Z,99.99
2017-07-29T12:01:03.278Z,99.99
2017-07-29T12:02:26.086Z,99.99
2017-07-29T12:03:48.575Z,99.99
2017-07-29T12:05:10.851Z,99.99
2017-07-29T12:06:32.764Z,99.99
2017-07-29T12:07:55.277Z,99.99
2017-07-29T12:09:17.477Z,99.99
2017-07-29T12:10:39.647Z,99.99
2017-07-29T12:12:01.515Z,99.99
2017-07-29T12:13:23.640Z,99.99
2017-07-29T12:14:46.111Z,99.99
2017-07-29T12:16:08.418Z,99.99
2017-07-29T12:17:30.584Z,99.99
2017-07-29T12:18:53.009Z,99.99
2017-07-29T12:20:15.188Z,99.99
2017-07-29T12:21:37.716Z,99.99
2017-07-29T12:22:59.599Z,99.99
2017-07-29T12:24:21.796Z,99.99
2017-07-29T12:25:44.109Z,99.99
2017-07-29T12:27:06.011Z,99.99
2017-07-29T12:28:28.206Z,99.99
2017-07-29T12:29:50.767Z,99.99
2017-07-29T12:31:13.293Z,99.99
2017-07-29T12:32:35.924Z,99.99
2017-07-29T12:33:58.454Z,99.99
2017-07-29T12:35:20.928Z,99.99
2017-07-29T12:36:42.809Z,99.99
2017-07-29T12:38:05.030Z,99.99
2017-07-29T12:39:27.344Z,99.99
2017-07-29T12:40:50.035Z,99.99
2017-07-29T12:42:12.492Z,99.99
2017-07-29T12:43:34.737Z,99.99
2017-07-29T12:44:56.924Z,99.99
2017-07-29T12:46:19.471Z,99.99
2017-07-29T12:47:41.934Z,99.99
2017-07-29T12:49:04.498Z,99.99
2017-07-29T12:50:26.987Z,99.99
2017-07-29T12:51:49.296Z,99.99
2017-07-29T12:53:11.488Z,99.99
2017-07-29T12:54:33.981Z,99.99
2017-07-29T12:55:56.156Z,99.99
2017-07-29T12:57:18.710Z,99.99
2017-07-29T12:58:40.564Z,99.99
2017-07-29T13:00:03.135Z,99.99
2017-07-29T13:01:25.318Z,99.99
2017-07-29T13:02:48.150Z,99.99
2017-07-29T13:04:10.045Z,99.99
2017-07-29T13:05:32.237Z,99.99
2017-07-29T13:06:54.092Z,99.99
2017-07-29T13:08:17.105Z,99.99
2017-07-29T13:09:38.648Z,99.99
2017-07-29T13:11:01.116Z,99.99
2017-07-29T13:12:23.008Z,99.99
2017-07-29T13:13:45.890Z,99.99
2017-07-29T13:15:07.802Z,99.99
2017-07-29T13:16:30.311Z,99.99
2017-07-29T13:17:52.866Z,99.99
2017-07-29T13:19:15.299Z,99.99
2017-07-29T13:20:37.475Z,99.99
2017-07-29T13:21:59.368Z,99.99
2017-07-29T13:23:21.963Z,99.99
2017-07-29T13:24:43.948Z,99.99
2017-07-29T13:26:06.388Z,99.99
2017-07-29T13:27:28.547Z,99.99
2017-07-29T13:28:50.196Z,99.99
2017-07-29T13:30:12.956Z,99.99
2017-07-29T13:31:34.862Z,99.99
2017-07-29T13:32:57.537Z,99.99
2017-07-29T13:34:19.700Z,99.99
2017-07-29T13:35:42.466Z,99.99
2017-07-29T13:37:05.036Z,99.99
2017-07-29T13:38:27.314Z,99.99
2017-07-29T13:39:49.502Z,99.99
2017-07-29T13:41:12.075Z,99.99
2017-07-29T13:42:34.321Z,99.99
2017-07-29T13:43:56.496Z,99.99
2017-07-29T13:45:18.686Z,99.99
2017-07-29T13:46:41.505Z,99.99
2017-07-29T13:48:03.696Z,99.94
2017-07-29T13:49:26.195Z,99.55
2017-07-29T13:50:48.627Z,99.99
2017-07-29T13:52:11.135Z,99.99
2017-07-29T13:53:32.681Z,99.55
2017-07-29T13:54:54.896Z,98.54
2017-07-29T13:56:17.396Z,98.49
2017-07-29T13:57:39.247Z,98.58
2017-07-29T13:59:01.127Z,99.7
2017-07-29T14:00:23.280Z,99.41
2017-07-29T14:01:45.168Z,98.73
2017-07-29T14:03:07.961Z,98.54
2017-07-29T14:04:30.542Z,97.96
2017-07-29T14:05:53.037Z,97.47
2017-07-29T14:07:15.526Z,98.88
2017-07-29T14:08:38.039Z,99.94
2017-07-29T14:10:00.549Z,99.89
2017-07-29T14:11:23.084Z,99.99
2017-07-29T14:12:45.564Z,99.7
2017-07-29T14:14:08.413Z,99.99
2017-07-29T14:15:30.621Z,99.99
2017-07-29T14:16:52.823Z,99.51
2017-07-29T14:18:15.351Z,99.36
2017-07-29T14:19:38.142Z,99.17
2017-07-29T14:21:00.286Z,99.17
2017-07-29T14:22:22.885Z,99.8
2017-07-29T14:23:46.147Z,98.73
2017-07-29T14:25:08.717Z,98.35
2017-07-29T14:26:30.587Z,97.23
2017-07-29T14:27:52.758Z,95.97
2017-07-29T14:29:14.305Z,96.84
2017-07-29T14:30:36.729Z,95.73
2017-07-29T14:31:59.245Z,95.82
2017-07-29T14:33:21.270Z,95.82
2017-07-29T14:34:43.166Z,96.01
2017-07-29T14:36:05.649Z,95.87
2017-07-29T14:37:28.167Z,95.87
2017-07-29T14:38:50.689Z,95.67
2017-07-29T14:40:13.189Z,95.67
2017-07-29T14:41:35.686Z,96.06
2017-07-29T14:42:58.184Z,96.06
2017-07-29T14:44:20.715Z,95.67
2017-07-29T14:45:43.260Z,96.16
2017-07-29T14:47:05.698Z,96.79
2017-07-29T14:48:28.263Z,97.08
2017-07-29T14:49:50.762Z,97.61
2017-07-29T14:51:13.024Z,97.61
2017-07-29T14:52:35.797Z,98.3
2017-07-29T14:53:58.309Z,98.58
2017-07-29T14:55:19.959Z,97.61
2017-07-29T14:56:42.465Z,98.2
2017-07-29T14:58:04.983Z,96.01
2017-07-29T14:59:27.165Z,95.78
2017-07-29T15:00:49.341Z,96.45
2017-07-29T15:02:10.944Z,97.61
2017-07-29T15:03:33.397Z,98.58
2017-07-29T15:04:55.573Z,96.69
2017-07-29T15:06:17.454Z,97.61
2017-07-29T15:07:39.967Z,96.94
2017-07-29T15:09:02.188Z,97.42
2017-07-29T15:10:24.375Z,98.49
2017-07-29T15:11:46.551Z,98.15
2017-07-29T15:13:09.079Z,98.68
2017-07-29T15:14:31.836Z,97.61
2017-07-29T15:15:54.163Z,98.58
2017-07-29T15:17:16.658Z,99.12
2017-07-29T15:18:38.847Z,99.02
2017-07-29T15:20:01.822Z,99.8
2017-07-29T15:21:23.689Z,99.99
2017-07-29T15:22:45.957Z,99.99
2017-07-29T15:24:08.166Z,99.99
2017-07-29T15:25:30.326Z,99.99
2017-07-29T15:26:52.214Z,99.99
2017-07-29T15:28:14.687Z,99.99
2017-07-29T15:29:36.571Z,99.99
2017-07-29T15:30:59.409Z,99.99
2017-07-29T15:32:22.048Z,99.99
2017-07-29T15:33:44.218Z,99.99
2017-07-29T15:35:06.218Z,99.99
2017-07-29T15:36:28.774Z,99.99
2017-07-29T15:37:50.965Z,99.99
2017-07-29T15:39:13.550Z,99.99
2017-07-29T15:40:35.844Z,99.99
2017-07-29T15:41:58.329Z,99.99
2017-07-29T15:43:20.939Z,99.99
2017-07-29T15:44:43.447Z,99.99
2017-07-29T15:46:05.636Z,99.99
2017-07-29T15:47:28.117Z,99.99
2017-07-29T15:48:50.327Z,99.99
2017-07-29T15:50:12.197Z,99.99
2017-07-29T15:51:34.367Z,99.99
2017-07-29T15:52:56.987Z,99.99
2017-07-29T15:54:19.466Z,99.99
2017-07-29T15:55:41.974Z,99.99
2017-07-29T15:57:03.581Z,99.99
2017-07-29T15:58:26.346Z,99.99
2017-07-29T15:59:48.526Z,99.99
2017-07-29T16:01:10.708Z,99.99
2017-07-29T16:02:32.888Z,99.99
2017-07-29T16:03:55.372Z,99.99
2017-07-29T16:05:17.675Z,99.99
2017-07-29T16:06:40.171Z,99.99
2017-07-29T16:08:02.715Z,99.99
2017-07-29T16:09:24.873Z,99.99
2017-07-29T16:10:47.209Z,99.99
2017-07-29T16:12:09.092Z,99.99
2017-07-29T16:13:31.753Z,99.99
2017-07-29T16:14:53.947Z,99.99
2017-07-29T16:16:16.202Z,99.99
2017-07-29T16:17:38.700Z,99.99
2017-07-29T16:19:01.080Z,99.99
2017-07-29T16:20:23.735Z,99.99
2017-07-29T16:21:46.128Z,99.99
2017-07-29T16:23:08.654Z,99.99
2017-07-29T16:24:31.189Z,99.99
2017-07-29T16:25:53.438Z,99.99
2017-07-29T16:27:15.437Z,99.99
2017-07-29T16:28:38.330Z,99.99
2017-07-29T16:30:01.295Z,99.99
2017-07-29T16:31:28.217Z,99.99
2017-07-29T16:36:38.834Z,99.99
2017-07-29T16:38:07.800Z,99.99
2017-07-29T16:39:30.724Z,99.99
2017-07-29T16:40:55.837Z,99.99
2017-07-29T16:42:23.425Z,99.99
2017-07-29T16:43:46.050Z,99.99
2017-07-29T16:45:08.380Z,99.99
2017-07-29T16:46:30.614Z,99.99
2017-07-29T16:47:53.438Z,99.99
2017-07-29T16:49:15.947Z,99.99
2017-07-29T16:50:38.127Z,99.99
2017-07-29T16:52:00.442Z,99.99
2017-07-29T16:53:22.348Z,99.99
2017-07-29T16:54:44.882Z,99.99
2017-07-29T16:56:07.365Z,99.99
2017-07-29T16:57:30.017Z,99.99
2017-07-29T16:58:52.516Z,99.99
2017-07-29T17:00:15.113Z,99.99
2017-07-29T17:01:37.612Z,99.99
2017-07-29T17:02:59.602Z,99.99
2017-07-29T17:04:22.365Z,99.99
2017-07-29T17:05:44.300Z,99.99
2017-07-29T17:07:06.477Z,99.99
2017-07-29T17:08:28.967Z,99.99
2017-07-29T17:09:51.723Z,99.99
2017-07-29T17:11:14.250Z,99.99
2017-07-29T17:12:36.974Z,99.99
2017-07-29T17:13:59.195Z,99.99
2017-07-29T17:15:21.038Z,99.99
2017-07-29T17:16:43.220Z,99.99
2017-07-29T17:18:05.687Z,99.99
2017-07-29T17:19:27.970Z,99.99
2017-07-29T17:20:50.719Z,99.99
2017-07-29T17:22:12.581Z,99.99
2017-07-29T17:23:34.429Z,99.99
2017-07-29T17:24:56.276Z,99.99
2017-07-29T17:26:18.843Z,99.99
2017-07-29T17:27:49.056Z,99.99
2017-07-29T17:29:13.785Z,99.99
2017-07-29T17:30:35.714Z,99.99
2017-07-29T17:31:58.982Z,99.99
2017-07-29T17:33:22.571Z,99.99
2017-07-29T17:34:45.823Z,99.99
2017-07-29T17:36:08.522Z,99.99
2017-07-29T17:37:31.052Z,99.99
2017-07-29T17:38:53.585Z,99.99
2017-07-29T17:40:15.140Z,99.99
2017-07-29T17:41:37.320Z,99.99
2017-07-29T17:42:59.753Z,99.99